Time,TemperatureF,DewpointF,PressureIn,WindDirection,WindDirectionDegrees,WindSpeedMPH,WindSpeedGustMPH,Humidity,HourlyPrecipIn,Conditions,Clouds,dailyrainin,SoftwareType,DateUTC
2013-04-05 07:11:00,37.5,32.5,30.15,NNE,17,9.0,9.0,82,0.00,,,0.00,Wunderground v.1.15,2013-04-05 12:11:00,
2013-04-05 07:14:00,37.6,32.6,30.15,NNE,20,9.0,12.0,82,0.00,,,0.00,Wunderground v.1.15,2013-04-05 12:14:00,
2013-04-05 07:19:00,37.8,32.5,30.15,NNE,18,10.0,13.0,81,0.00,,,0.00,Wunderground v.1.15,2013-04-05 12:19:00,
2013-04-05 07:24:00,38.0,32.7,30.15,NE,35,10.0,12.0,81,0.00,,,0.00,Wunderground v.1.15,2013-04-05 12:24:00,
2013-04-05 07:29:00,38.1,32.8,30.16,NE,34,9.0,12.0,81,0.00,,,0.00,Wunderground v.1.15,2013-04-05 12:29:00,
2013-04-05 07:34:00,38.4,32.5,30.16,NNE,19,9.0,11.0,79,0.00,,,0.00,Wunderground v.1.15,2013-04-05 12:34:00,
2013-04-05 07:39:00,38.6,32.0,30.16,NNE,31,10.0,16.0,77,0.00,,,0.00,Wunderground v.1.15,2013-04-05 12:39:00,
2013-04-05 07:44:00,38.9,32.3,30.16,NE,44,11.0,13.0,77,0.00,,,0.00,Wunderground v.1.15,2013-04-05 12:44:00,
2013-04-05 07:49:00,39.1,31.8,30.16,NNE,30,11.0,13.0,75,0.00,,,0.00,Wunderground v.1.15,2013-04-05 12:49:00,
2013-04-05 07:54:00,39.5,31.9,30.17,NE,47,11.0,15.0,74,0.00,,,0.00,Wunderground v.1.15,2013-04-05 12:54:00,
2013-04-05 08:00:00,39.8,31.8,30.17,NE,40,12.0,12.0,73,0.00,,,0.00,Wunderground v.1.15,2013-04-05 13:00:00,
2013-04-05 08:05:00,40.1,31.8,30.17,NNE,15,13.0,15.0,72,0.00,,,0.00,Wunderground v.1.15,2013-04-05 13:05:00,
2013-04-05 08:11:00,40.4,31.7,30.17,NE,38,14.0,15.0,71,0.00,,,0.00,Wunderground v.1.15,2013-04-05 13:11:00,
2013-04-05 08:16:00,40.8,31.8,30.17,NNE,28,14.0,15.0,70,0.00,,,0.00,Wunderground v.1.15,2013-04-05 13:16:00,
2013-04-05 08:21:00,41.1,31.3,30.17,NNE,30,13.0,14.0,68,0.00,,,0.00,Wunderground v.1.15,2013-04-05 13:21:00,
2013-04-05 08:27:00,41.5,31.0,30.17,NE,36,14.0,16.0,66,0.00,,,0.00,Wunderground v.1.15,2013-04-05 13:27:00,
2013-04-05 08:32:00,41.8,30.5,30.17,NE,38,14.0,16.0,64,0.00,,,0.00,Wunderground v.1.15,2013-04-05 13:32:00,
2013-04-05 08:37:00,42.0,30.3,30.17,NE,38,15.0,16.0,63,0.00,,,0.00,Wunderground v.1.15,2013-04-05 13:37:00,
2013-04-05 08:42:00,42.3,29.8,30.17,NE,42,16.0,16.0,61,0.00,,,0.00,Wunderground v.1.15,2013-04-05 13:42:00,
2013-04-05 08:49:00,43.0,30.5,30.17,NE,38,15.0,18.0,61,0.00,,,0.00,Wunderground v.1.15,2013-04-05 13:49:00,
2013-04-05 08:54:00,43.2,29.8,30.17,NE,40,16.0,18.0,59,0.00,,,0.00,Wunderground v.1.15,2013-04-05 13:54:00,
2013-04-05 08:59:00,43.4,29.6,30.17,NE,51,17.0,21.0,58,0.00,,,0.00,Wunderground v.1.15,2013-04-05 13:59:00,
2013-04-05 09:04:00,43.8,30.0,30.17,NE,43,17.0,20.0,58,0.00,,,0.00,Wunderground v.1.15,2013-04-05 14:04:00,
2013-04-05 09:09:00,44.1,30.3,30.17,NE,42,17.0,20.0,58,0.00,,,0.00,Wunderground v.1.15,2013-04-05 14:09:00,
2013-04-05 09:14:00,44.5,29.3,30.17,NNE,30,17.0,20.0,55,0.00,,,0.00,Wunderground v.1.15,2013-04-05 14:14:00,
2013-04-05 09:20:00,44.5,28.9,30.17,ENE,60,17.0,18.0,54,0.00,,,0.00,Wunderground v.1.15,2013-04-05 14:20:00,
2013-04-05 09:26:00,44.6,29.0,30.18,NE,40,17.0,19.0,54,0.00,,,0.00,Wunderground v.1.15,2013-04-05 14:26:00,
2013-04-05 09:34:00,45.1,29.0,30.18,NE,51,16.0,17.0,53,0.00,,,0.00,Wunderground v.1.15,2013-04-05 14:34:00,
2013-04-05 09:39:00,45.2,29.1,30.18,NE,39,16.0,17.0,53,0.00,,,0.00,Wunderground v.1.15,2013-04-05 14:39:00,
2013-04-05 09:45:00,45.6,29.4,30.18,NE,49,16.0,17.0,53,0.00,,,0.00,Wunderground v.1.15,2013-04-05 14:45:00,
2013-04-05 09:51:00,46.0,28.9,30.18,NE,42,15.0,19.0,51,0.00,,,0.00,Wunderground v.1.15,2013-04-05 14:51:00,
2013-04-05 09:57:00,46.0,28.4,30.19,NE,40,15.0,20.0,50,0.00,,,0.00,Wunderground v.1.15,2013-04-05 14:57:00,
2013-04-05 10:02:00,46.2,29.1,30.19,NE,36,15.0,18.0,51,0.00,,,0.00,Wunderground v.1.15,2013-04-05 15:02:00,
2013-04-05 10:07:00,46.7,29.5,30.19,NNE,26,14.0,18.0,51,0.00,,,0.00,Wunderground v.1.15,2013-04-05 15:07:00,
2013-04-05 10:14:00,46.8,28.1,30.19,NE,38,14.0,17.0,48,0.00,,,0.00,Wunderground v.1.15,2013-04-05 15:14:00,
2013-04-05 10:19:00,46.6,28.4,30.19,NE,40,15.0,18.0,49,0.00,,,0.00,Wunderground v.1.15,2013-04-05 15:19:00,
2013-04-05 10:24:00,47.0,27.8,30.19,NE,36,15.0,18.0,47,0.00,,,0.00,Wunderground v.1.15,2013-04-05 15:24:00,
2013-04-05 10:29:00,47.3,28.6,30.19,NE,46,14.0,18.0,48,0.00,,,0.00,Wunderground v.1.15,2013-04-05 15:29:00,
2013-04-05 10:35:00,47.5,27.7,30.19,NE,42,14.0,17.0,46,0.00,,,0.00,Wunderground v.1.15,2013-04-05 15:35:00,
2013-04-05 10:40:00,47.6,28.3,30.19,NE,46,13.0,18.0,47,0.00,,,0.00,Wunderground v.1.15,2013-04-05 15:40:00,
2013-04-05 10:46:00,47.8,27.5,30.19,NE,35,13.0,18.0,45,0.00,,,0.00,Wunderground v.1.15,2013-04-05 15:46:00,
2013-04-05 10:51:00,48.2,27.3,30.19,NE,44,13.0,16.0,44,0.00,,,0.00,Wunderground v.1.15,2013-04-05 15:51:00,
2013-04-05 10:56:00,48.3,27.4,30.19,NE,54,13.0,16.0,44,0.00,,,0.00,Wunderground v.1.15,2013-04-05 15:56:00,
2013-04-05 11:01:00,48.2,26.7,30.19,NE,34,13.0,13.0,43,0.00,,,0.00,Wunderground v.1.15,2013-04-05 16:01:00,
2013-04-05 11:06:00,48.4,26.9,30.19,NE,51,14.0,14.0,43,0.00,,,0.00,Wunderground v.1.15,2013-04-05 16:06:00,
2013-04-05 11:12:00,48.4,26.9,30.20,NE,51,13.0,14.0,43,0.00,,,0.00,Wunderground v.1.15,2013-04-05 16:12:00,
2013-04-05 11:19:00,49.1,26.4,30.20,ENE,61,12.0,17.0,41,0.00,,,0.00,Wunderground v.1.15,2013-04-05 16:19:00,
2013-04-05 11:24:00,49.1,26.4,30.20,NNE,17,12.0,15.0,41,0.00,,,0.00,Wunderground v.1.15,2013-04-05 16:24:00,
2013-04-05 11:29:00,48.9,25.6,30.20,NE,37,13.0,15.0,40,0.00,,,0.00,Wunderground v.1.15,2013-04-05 16:29:00,
2013-04-05 11:34:00,49.0,25.7,30.20,NE,47,12.0,13.0,40,0.00,,,0.00,Wunderground v.1.15,2013-04-05 16:34:00,
2013-04-05 11:40:00,49.5,26.7,30.20,NE,46,12.0,14.0,41,0.00,,,0.00,Wunderground v.1.15,2013-04-05 16:40:00,
2013-04-05 11:46:00,49.1,25.8,30.20,ENE,61,13.0,14.0,40,0.00,,,0.00,Wunderground v.1.15,2013-04-05 16:46:00,
2013-04-05 11:52:00,49.4,26.7,30.20,ENE,59,12.0,14.0,41,0.00,,,0.00,Wunderground v.1.15,2013-04-05 16:52:00,
2013-04-05 11:59:00,49.8,27.0,30.19,NNE,31,12.0,14.0,41,0.00,,,0.00,Wunderground v.1.15,2013-04-05 16:59:00,
2013-04-05 12:04:00,49.7,25.7,30.19,ENE,61,11.0,12.0,39,0.00,,,0.00,Wunderground v.1.15,2013-04-05 17:04:00,
2013-04-05 12:10:00,49.6,25.6,30.19,NE,34,12.0,14.0,39,0.00,,,0.00,Wunderground v.1.15,2013-04-05 17:10:00,
2013-04-05 12:17:00,50.0,26.0,30.19,NNE,13,13.0,15.0,39,0.00,,,0.00,Wunderground v.1.15,2013-04-05 17:17:00,
2013-04-05 12:22:00,50.1,24.8,30.19,NNE,18,12.0,15.0,37,0.00,,,0.00,Wunderground v.1.15,2013-04-05 17:22:00,
2013-04-05 12:27:00,50.3,24.3,30.18,NE,40,13.0,17.0,36,0.00,,,0.00,Wunderground v.1.15,2013-04-05 17:27:00,
2013-04-05 12:32:00,50.0,23.4,30.18,NE,44,14.0,19.0,35,0.00,,,0.00,Wunderground v.1.15,2013-04-05 17:32:00,
2013-04-05 12:39:00,49.5,22.3,30.18,NE,49,13.0,19.0,34,0.00,,,0.00,Wunderground v.1.15,2013-04-05 17:39:00,
2013-04-05 12:44:00,49.8,21.8,30.18,NE,40,12.0,15.0,33,0.00,,,0.00,Wunderground v.1.15,2013-04-05 17:44:00,
2013-04-05 12:49:00,50.3,22.3,30.18,North,9,12.0,15.0,33,0.00,,,0.00,Wunderground v.1.15,2013-04-05 17:49:00,
2013-04-05 12:54:00,50.3,23.0,30.18,ENE,69,11.0,16.0,34,0.00,,,0.00,Wunderground v.1.15,2013-04-05 17:54:00,
2013-04-05 12:59:00,50.3,20.0,30.18,NE,40,12.0,16.0,30,0.00,,,0.00,Wunderground v.1.15,2013-04-05 17:59:00,
2013-04-05 13:05:00,49.4,20.7,30.18,NE,38,12.0,14.0,32,0.00,,,0.00,Wunderground v.1.15,2013-04-05 18:05:00,
2013-04-05 13:11:00,49.9,22.6,30.18,NE,42,12.0,12.0,34,0.00,,,0.00,Wunderground v.1.15,2013-04-05 18:11:00,
2013-04-05 13:16:00,49.9,21.9,30.17,NNE,26,12.0,14.0,33,0.00,,,0.00,Wunderground v.1.15,2013-04-05 18:16:00,
2013-04-05 13:21:00,49.7,21.7,30.17,NNE,29,11.0,13.0,33,0.00,,,0.00,Wunderground v.1.15,2013-04-05 18:21:00,
2013-04-05 13:27:00,49.7,21.7,30.17,NE,49,12.0,15.0,33,0.00,,,0.00,Wunderground v.1.15,2013-04-05 18:27:00,
2013-04-05 13:32:00,49.6,21.6,30.16,NE,55,12.0,12.0,33,0.00,,,0.00,Wunderground v.1.15,2013-04-05 18:32:00,
2013-04-05 13:39:00,50.1,20.6,30.16,NE,45,12.0,13.0,31,0.00,,,0.00,Wunderground v.1.15,2013-04-05 18:39:00,
2013-04-05 13:44:00,50.0,22.0,30.16,NE,44,12.0,14.0,33,0.00,,,0.00,Wunderground v.1.15,2013-04-05 18:44:00,
2013-04-05 13:49:00,50.0,22.0,30.16,NNE,28,11.0,16.0,33,0.00,,,0.00,Wunderground v.1.15,2013-04-05 18:49:00,
2013-04-05 13:54:00,50.3,21.5,30.16,NE,55,12.0,14.0,32,0.00,,,0.00,Wunderground v.1.15,2013-04-05 18:54:00,
2013-04-05 14:00:00,50.1,21.3,30.16,NE,42,11.0,11.0,32,0.00,,,0.00,Wunderground v.1.15,2013-04-05 19:00:00,
2013-04-05 14:05:00,50.7,21.9,30.16,ENE,59,10.0,14.0,32,0.00,,,0.00,Wunderground v.1.15,2013-04-05 19:05:00,
2013-04-05 14:10:00,50.7,22.6,30.15,ENE,71,11.0,11.0,33,0.00,,,0.00,Wunderground v.1.15,2013-04-05 19:10:00,
2013-04-05 14:15:00,51.0,22.1,30.15,NNE,33,10.0,11.0,32,0.00,,,0.00,Wunderground v.1.15,2013-04-05 19:15:00,
2013-04-05 14:20:00,51.2,21.6,30.15,NE,36,10.0,12.0,31,0.00,,,0.00,Wunderground v.1.15,2013-04-05 19:20:00,
2013-04-05 14:25:00,51.5,20.2,30.15,ENE,59,11.0,14.0,29,0.00,,,0.00,Wunderground v.1.15,2013-04-05 19:25:00,
2013-04-05 14:31:00,50.8,22.0,30.15,NE,55,10.0,11.0,32,0.00,,,0.00,Wunderground v.1.15,2013-04-05 19:31:00,
2013-04-05 14:37:00,50.9,21.3,30.14,NE,45,10.0,13.0,31,0.00,,,0.00,Wunderground v.1.15,2013-04-05 19:37:00,
2013-04-05 14:42:00,51.1,21.5,30.14,NNE,25,10.0,13.0,31,0.00,,,0.00,Wunderground v.1.15,2013-04-05 19:42:00,
2013-04-05 14:47:00,51.0,19.8,30.13,NE,51,11.0,15.0,29,0.00,,,0.00,Wunderground v.1.15,2013-04-05 19:47:00,
2013-04-05 14:54:00,51.0,20.6,30.13,NE,38,11.0,14.0,30,0.00,,,0.00,Wunderground v.1.15,2013-04-05 19:54:00,
2013-04-05 14:59:00,51.3,19.3,30.14,NNE,13,10.0,17.0,28,0.00,,,0.00,Wunderground v.1.15,2013-04-05 19:59:00,
2013-04-05 15:04:00,51.6,19.5,30.14,NNE,26,10.0,14.0,28,0.00,,,0.00,Wunderground v.1.15,2013-04-05 20:04:00,
2013-04-05 15:10:00,51.5,19.4,30.14,NNE,24,10.0,10.0,28,0.00,,,0.00,Wunderground v.1.15,2013-04-05 20:10:00,
2013-04-05 15:16:00,51.6,21.1,30.14,North,10,11.0,13.0,30,0.00,,,0.00,Wunderground v.1.15,2013-04-05 20:16:00,
2013-04-05 15:22:00,51.5,21.8,30.14,ENE,63,10.0,10.0,31,0.00,,,0.00,Wunderground v.1.15,2013-04-05 20:22:00,
2013-04-05 15:29:00,51.7,21.2,30.14,NE,39,10.0,13.0,30,0.00,,,0.00,Wunderground v.1.15,2013-04-05 20:29:00,
2013-04-05 15:35:00,51.1,22.2,30.14,ENE,63,11.0,12.0,32,0.00,,,0.00,Wunderground v.1.15,2013-04-05 20:35:00,
2013-04-05 15:40:00,50.8,20.4,30.14,NE,49,11.0,11.0,30,0.00,,,0.00,Wunderground v.1.15,2013-04-05 20:40:00,
2013-04-05 15:46:00,50.7,21.1,30.14,NE,51,9.0,11.0,31,0.00,,,0.00,Wunderground v.1.15,2013-04-05 20:46:00,
2013-04-05 15:52:00,50.5,20.9,30.14,NE,41,9.0,10.0,31,0.00,,,0.00,Wunderground v.1.15,2013-04-05 20:52:00,
2013-04-05 15:59:00,50.7,20.4,30.14,NNE,32,10.0,13.0,30,0.00,,,0.00,Wunderground v.1.15,2013-04-05 20:59:00,
2013-04-05 16:04:00,50.5,20.2,30.14,NE,45,10.0,12.0,30,0.00,,,0.00,Wunderground v.1.15,2013-04-05 21:04:00,
2013-04-05 16:09:00,50.6,20.3,30.15,NE,37,10.0,12.0,30,0.00,,,0.00,Wunderground v.1.15,2013-04-05 21:09:00,
2013-04-05 16:14:00,51.0,19.8,30.15,North,360,10.0,13.0,29,0.00,,,0.00,Wunderground v.1.15,2013-04-05 21:14:00,
2013-04-05 16:20:00,50.5,20.2,30.15,North,360,9.0,9.0,30,0.00,,,0.00,Wunderground v.1.15,2013-04-05 21:20:00,
2013-04-05 16:26:00,49.9,18.9,30.15,NNE,24,9.0,11.0,29,0.00,,,0.00,Wunderground v.1.15,2013-04-05 21:26:00,
2013-04-05 16:32:00,50.1,19.8,30.14,NE,46,9.0,14.0,30,0.00,,,0.00,Wunderground v.1.15,2013-04-05 21:32:00,
2013-04-05 16:39:00,49.9,19.7,30.14,ENE,58,10.0,14.0,30,0.00,,,0.00,Wunderground v.1.15,2013-04-05 21:39:00,
2013-04-05 16:44:00,50.0,18.9,30.14,NNE,26,9.0,12.0,29,0.00,,,0.00,Wunderground v.1.15,2013-04-05 21:44:00,